sensor_id;sensor_type;location;lat;lon;timestamp;P1;durP1;ratioP1;P2;durP2;ratioP2
66179;SDS011;52986;44.028;20.466;2022-12-29T00:02:11;122.85;;;47.78;;
66179;SDS011;52986;44.028;20.466;2022-12-29T00:04:37;106.47;;;42.33;;
66179;SDS011;52986;44.028;20.466;2022-12-29T00:07:02;98.63;;;39.10;;
66179;SDS011;52986;44.028;20.466;2022-12-29T00:09:29;98.55;;;38.67;;
66179;SDS011;52986;44.028;20.466;2022-12-29T00:11:56;98.90;;;40.70;;
66179;SDS011;52986;44.028;20.466;2022-12-29T00:14:21;95.15;;;37.75;;
66179;SDS011;52986;44.028;20.466;2022-12-29T00:17:05;95.85;;;40.00;;
66179;SDS011;52986;44.028;20.466;2022-12-29T00:19:31;93.82;;;38.03;;
66179;SDS011;52986;44.028;20.466;2022-12-29T00:22:15;90.50;;;35.83;;
66179;SDS011;52986;44.028;20.466;2022-12-29T00:24:59;86.07;;;36.50;;
66179;SDS011;52986;44.028;20.466;2022-12-29T00:27:43;100.90;;;40.90;;
66179;SDS011;52986;44.028;20.466;2022-12-29T00:30:27;86.75;;;35.30;;
66179;SDS011;52986;44.028;20.466;2022-12-29T00:36:07;87.20;;;36.58;;
66179;SDS011;52986;44.028;20.466;2022-12-29T00:38:37;87.28;;;36.22;;
66179;SDS011;52986;44.028;20.466;2022-12-29T00:41:23;95.45;;;39.33;;
66179;SDS011;52986;44.028;20.466;2022-12-29T00:44:08;97.50;;;41.58;;
66179;SDS011;52986;44.028;20.466;2022-12-29T00:46:36;100.75;;;41.22;;
66179;SDS011;52986;44.028;20.466;2022-12-29T00:49:03;98.72;;;39.78;;
66179;SDS011;52986;44.028;20.466;2022-12-29T00:51:49;109.53;;;43.42;;
66179;SDS011;52986;44.028;20.466;2022-12-29T00:54:15;105.80;;;43.83;;
66179;SDS011;52986;44.028;20.466;2022-12-29T00:56:40;106.75;;;46.42;;
66179;SDS011;52986;44.028;20.466;2022-12-29T00:59:07;112.63;;;42.63;;
66179;SDS011;52986;44.028;20.466;2022-12-29T01:01:35;112.10;;;47.05;;
66179;SDS011;52986;44.028;20.466;2022-12-29T01:04:02;100.75;;;41.33;;
66179;SDS011;52986;44.028;20.466;2022-12-29T01:06:28;98.68;;;43.70;;
66179;SDS011;52986;44.028;20.466;2022-12-29T01:08:53;104.10;;;41.45;;
66179;SDS011;52986;44.028;20.466;2022-12-29T01:11:37;97.28;;;38.50;;
66179;SDS011;52986;44.028;20.466;2022-12-29T01:14:04;100.47;;;39.65;;
66179;SDS011;52986;44.028;20.466;2022-12-29T01:16:30;104.13;;;43.95;;
66179;SDS011;52986;44.028;20.466;2022-12-29T01:18:55;104.70;;;44.42;;
66179;SDS011;52986;44.028;20.466;2022-12-29T01:21:21;111.72;;;46.92;;
66179;SDS011;52986;44.028;20.466;2022-12-29T01:23:46;107.53;;;44.75;;
66179;SDS011;52986;44.028;20.466;2022-12-29T01:26:12;113.15;;;47.45;;
66179;SDS011;52986;44.028;20.466;2022-12-29T01:28:39;102.65;;;43.35;;
66179;SDS011;52986;44.028;20.466;2022-12-29T01:31:08;108.03;;;43.88;;
66179;SDS011;52986;44.028;20.466;2022-12-29T01:33:34;102.90;;;41.95;;
66179;SDS011;52986;44.028;20.466;2022-12-29T01:36:00;98.55;;;42.08;;
66179;SDS011;52986;44.028;20.466;2022-12-29T01:38:26;103.00;;;41.65;;
66179;SDS011;52986;44.028;20.466;2022-12-29T01:40:52;102.18;;;40.85;;
66179;SDS011;52986;44.028;20.466;2022-12-29T01:43:17;98.93;;;42.73;;
66179;SDS011;52986;44.028;20.466;2022-12-29T01:45:43;97.50;;;40.73;;
66179;SDS011;52986;44.028;20.466;2022-12-29T01:48:13;96.50;;;40.10;;
66179;SDS011;52986;44.028;20.466;2022-12-29T01:50:41;98.15;;;39.88;;
66179;SDS011;52986;44.028;20.466;2022-12-29T01:53:13;88.82;;;37.45;;
66179;SDS011;52986;44.028;20.466;2022-12-29T01:55:44;90.30;;;38.15;;
66179;SDS011;52986;44.028;20.466;2022-12-29T01:58:13;93.78;;;38.58;;
66179;SDS011;52986;44.028;20.466;2022-12-29T02:00:40;89.13;;;36.75;;
66179;SDS011;52986;44.028;20.466;2022-12-29T02:03:06;90.25;;;38.00;;
66179;SDS011;52986;44.028;20.466;2022-12-29T02:05:38;86.43;;;37.80;;
66179;SDS011;52986;44.028;20.466;2022-12-29T02:08:08;92.65;;;39.42;;
66179;SDS011;52986;44.028;20.466;2022-12-29T02:10:36;93.28;;;39.33;;
66179;SDS011;52986;44.028;20.466;2022-12-29T02:13:02;92.82;;;39.60;;
66179;SDS011;52986;44.028;20.466;2022-12-29T02:26:56;90.93;;;35.53;;
66179;SDS011;52986;44.028;20.466;2022-12-29T02:45:41;91.00;;;36.67;;
66179;SDS011;52986;44.028;20.466;2022-12-29T02:51:00;83.55;;;36.60;;
66179;SDS011;52986;44.028;20.466;2022-12-29T02:56:13;79.10;;;32.80;;
66179;SDS011;52986;44.028;20.466;2022-12-29T02:58:39;80.75;;;31.95;;
66179;SDS011;52986;44.028;20.466;2022-12-29T03:04:03;73.20;;;30.42;;
66179;SDS011;52986;44.028;20.466;2022-12-29T03:12:16;80.82;;;31.63;;
66179;SDS011;52986;44.028;20.466;2022-12-29T03:15:02;83.75;;;32.78;;
66179;SDS011;52986;44.028;20.466;2022-12-29T03:17:58;68.10;;;27.48;;
66179;SDS011;52986;44.028;20.466;2022-12-29T03:21:12;63.78;;;26.70;;
66179;SDS011;52986;44.028;20.466;2022-12-29T03:23:19;72.32;;;28.95;;
66179;SDS011;52986;44.028;20.466;2022-12-29T03:25:47;76.10;;;30.35;;
66179;SDS011;52986;44.028;20.466;2022-12-29T03:28:18;78.72;;;34.38;;
66179;SDS011;52986;44.028;20.466;2022-12-29T03:30:48;72.43;;;32.13;;
66179;SDS011;52986;44.028;20.466;2022-12-29T03:33:14;85.20;;;35.10;;
66179;SDS011;52986;44.028;20.466;2022-12-29T03:35:43;87.00;;;36.63;;
66179;SDS011;52986;44.028;20.466;2022-12-29T03:38:30;82.78;;;34.80;;
66179;SDS011;52986;44.028;20.466;2022-12-29T03:41:22;81.30;;;34.08;;
66179;SDS011;52986;44.028;20.466;2022-12-29T03:43:52;83.20;;;35.40;;
66179;SDS011;52986;44.028;20.466;2022-12-29T03:46:17;77.50;;;33.72;;
66179;SDS011;52986;44.028;20.466;2022-12-29T03:48:43;87.70;;;35.87;;
66179;SDS011;52986;44.028;20.466;2022-12-29T03:51:08;89.57;;;38.38;;
66179;SDS011;52986;44.028;20.466;2022-12-29T03:53:33;83.50;;;35.45;;
66179;SDS011;52986;44.028;20.466;2022-12-29T03:55:59;81.35;;;34.70;;
66179;SDS011;52986;44.028;20.466;2022-12-29T03:58:24;84.13;;;34.72;;
66179;SDS011;52986;44.028;20.466;2022-12-29T04:00:50;82.10;;;35.97;;
66179;SDS011;52986;44.028;20.466;2022-12-29T04:03:15;84.13;;;35.97;;
66179;SDS011;52986;44.028;20.466;2022-12-29T04:05:40;90.15;;;36.28;;
66179;SDS011;52986;44.028;20.466;2022-12-29T04:08:06;83.45;;;35.72;;
66179;SDS011;52986;44.028;20.466;2022-12-29T04:10:31;94.25;;;39.03;;
66179;SDS011;52986;44.028;20.466;2022-12-29T04:12:56;96.88;;;38.22;;
66179;SDS011;52986;44.028;20.466;2022-12-29T04:15:22;84.65;;;36.05;;
66179;SDS011;52986;44.028;20.466;2022-12-29T04:17:49;89.85;;;37.05;;
66179;SDS011;52986;44.028;20.466;2022-12-29T04:20:14;96.78;;;38.33;;
66179;SDS011;52986;44.028;20.466;2022-12-29T04:23:02;90.82;;;37.92;;
66179;SDS011;52986;44.028;20.466;2022-12-29T04:25:28;88.13;;;36.90;;
66179;SDS011;52986;44.028;20.466;2022-12-29T04:27:55;92.43;;;38.13;;
66179;SDS011;52986;44.028;20.466;2022-12-29T04:30:20;90.45;;;37.90;;
66179;SDS011;52986;44.028;20.466;2022-12-29T04:32:45;87.80;;;35.90;;
66179;SDS011;52986;44.028;20.466;2022-12-29T04:35:11;82.18;;;34.20;;
66179;SDS011;52986;44.028;20.466;2022-12-29T04:37:36;80.43;;;34.70;;
66179;SDS011;52986;44.028;20.466;2022-12-29T04:40:01;86.82;;;35.95;;
66179;SDS011;52986;44.028;20.466;2022-12-29T04:42:27;88.10;;;37.22;;
66179;SDS011;52986;44.028;20.466;2022-12-29T04:44:52;88.47;;;35.95;;
66179;SDS011;52986;44.028;20.466;2022-12-29T04:47:18;81.88;;;33.78;;
66179;SDS011;52986;44.028;20.466;2022-12-29T04:49:43;85.50;;;36.40;;
66179;SDS011;52986;44.028;20.466;2022-12-29T04:52:08;85.43;;;35.30;;
66179;SDS011;52986;44.028;20.466;2022-12-29T04:54:34;85.90;;;35.55;;
66179;SDS011;52986;44.028;20.466;2022-12-29T04:56:59;83.38;;;33.30;;
66179;SDS011;52986;44.028;20.466;2022-12-29T04:59:25;101.85;;;41.05;;
66179;SDS011;52986;44.028;20.466;2022-12-29T05:01:50;110.68;;;43.55;;
66179;SDS011;52986;44.028;20.466;2022-12-29T05:04:16;120.85;;;45.58;;
66179;SDS011;52986;44.028;20.466;2022-12-29T05:06:41;114.60;;;45.40;;
66179;SDS011;52986;44.028;20.466;2022-12-29T05:09:06;125.13;;;50.60;;
66179;SDS011;52986;44.028;20.466;2022-12-29T05:11:32;124.40;;;45.75;;
66179;SDS011;52986;44.028;20.466;2022-12-29T05:13:57;109.53;;;43.10;;
66179;SDS011;52986;44.028;20.466;2022-12-29T05:16:22;108.55;;;43.55;;
66179;SDS011;52986;44.028;20.466;2022-12-29T05:18:48;98.95;;;38.97;;
66179;SDS011;52986;44.028;20.466;2022-12-29T05:21:13;93.05;;;38.15;;
66179;SDS011;52986;44.028;20.466;2022-12-29T05:23:39;93.40;;;39.03;;
66179;SDS011;52986;44.028;20.466;2022-12-29T05:26:04;97.30;;;38.13;;
66179;SDS011;52986;44.028;20.466;2022-12-29T05:28:29;82.97;;;34.47;;
66179;SDS011;52986;44.028;20.466;2022-12-29T05:30:55;81.30;;;34.50;;
66179;SDS011;52986;44.028;20.466;2022-12-29T05:33:20;86.10;;;34.30;;
66179;SDS011;52986;44.028;20.466;2022-12-29T05:35:45;87.07;;;37.00;;
66179;SDS011;52986;44.028;20.466;2022-12-29T05:38:11;78.78;;;32.83;;
66179;SDS011;52986;44.028;20.466;2022-12-29T05:40:37;77.80;;;32.40;;
66179;SDS011;52986;44.028;20.466;2022-12-29T05:43:02;81.88;;;30.85;;
66179;SDS011;52986;44.028;20.466;2022-12-29T05:45:27;74.30;;;31.63;;
66179;SDS011;52986;44.028;20.466;2022-12-29T05:47:53;76.53;;;31.48;;
66179;SDS011;52986;44.028;20.466;2022-12-29T05:50:18;82.63;;;33.40;;
66179;SDS011;52986;44.028;20.466;2022-12-29T05:52:44;81.65;;;30.20;;
66179;SDS011;52986;44.028;20.466;2022-12-29T05:55:09;77.55;;;31.27;;
66179;SDS011;52986;44.028;20.466;2022-12-29T05:57:35;71.97;;;29.25;;
66179;SDS011;52986;44.028;20.466;2022-12-29T06:00:00;64.10;;;25.65;;
66179;SDS011;52986;44.028;20.466;2022-12-29T06:02:26;74.88;;;29.60;;
66179;SDS011;52986;44.028;20.466;2022-12-29T06:04:52;93.43;;;33.90;;
66179;SDS011;52986;44.028;20.466;2022-12-29T06:07:17;87.03;;;35.22;;
66179;SDS011;52986;44.028;20.466;2022-12-29T06:09:43;94.10;;;38.08;;
66179;SDS011;52986;44.028;20.466;2022-12-29T06:12:08;111.78;;;43.42;;
66179;SDS011;52986;44.028;20.466;2022-12-29T06:14:33;109.65;;;45.10;;
66179;SDS011;52986;44.028;20.466;2022-12-29T06:16:59;109.40;;;46.70;;
66179;SDS011;52986;44.028;20.466;2022-12-29T06:19:25;113.28;;;47.75;;
66179;SDS011;52986;44.028;20.466;2022-12-29T06:21:50;117.72;;;48.72;;
66179;SDS011;52986;44.028;20.466;2022-12-29T06:24:17;128.10;;;55.63;;
66179;SDS011;52986;44.028;20.466;2022-12-29T06:26:43;122.65;;;50.03;;
66179;SDS011;52986;44.028;20.466;2022-12-29T06:29:08;114.93;;;46.28;;
66179;SDS011;52986;44.028;20.466;2022-12-29T06:31:34;115.18;;;45.72;;
66179;SDS011;52986;44.028;20.466;2022-12-29T06:33:59;117.50;;;45.07;;
66179;SDS011;52986;44.028;20.466;2022-12-29T06:36:24;121.15;;;49.17;;
66179;SDS011;52986;44.028;20.466;2022-12-29T06:38:50;110.53;;;44.78;;
66179;SDS011;52986;44.028;20.466;2022-12-29T06:41:17;112.40;;;45.72;;
66179;SDS011;52986;44.028;20.466;2022-12-29T06:43:43;95.88;;;40.88;;
66179;SDS011;52986;44.028;20.466;2022-12-29T06:46:09;103.25;;;41.67;;
66179;SDS011;52986;44.028;20.466;2022-12-29T06:48:34;100.80;;;43.20;;
66179;SDS011;52986;44.028;20.466;2022-12-29T06:51:00;106.57;;;42.15;;
66179;SDS011;52986;44.028;20.466;2022-12-29T06:53:25;101.43;;;40.20;;
66179;SDS011;52986;44.028;20.466;2022-12-29T06:55:51;99.18;;;41.33;;
66179;SDS011;52986;44.028;20.466;2022-12-29T06:58:17;103.75;;;42.92;;
66179;SDS011;52986;44.028;20.466;2022-12-29T07:00:42;101.55;;;42.58;;
66179;SDS011;52986;44.028;20.466;2022-12-29T07:03:07;95.10;;;40.75;;
66179;SDS011;52986;44.028;20.466;2022-12-29T07:05:33;97.30;;;41.22;;
66179;SDS011;52986;44.028;20.466;2022-12-29T07:07:58;95.30;;;40.08;;
66179;SDS011;52986;44.028;20.466;2022-12-29T07:10:24;101.57;;;41.72;;
66179;SDS011;52986;44.028;20.466;2022-12-29T07:12:49;106.35;;;47.72;;
66179;SDS011;52986;44.028;20.466;2022-12-29T07:15:15;108.30;;;45.05;;
66179;SDS011;52986;44.028;20.466;2022-12-29T07:17:40;102.65;;;44.58;;
66179;SDS011;52986;44.028;20.466;2022-12-29T07:20:06;105.07;;;46.20;;
66179;SDS011;52986;44.028;20.466;2022-12-29T07:22:32;117.50;;;50.75;;
66179;SDS011;52986;44.028;20.466;2022-12-29T07:24:57;112.55;;;49.95;;
66179;SDS011;52986;44.028;20.466;2022-12-29T07:27:22;107.28;;;46.88;;
66179;SDS011;52986;44.028;20.466;2022-12-29T07:29:48;103.15;;;47.80;;
66179;SDS011;52986;44.028;20.466;2022-12-29T07:32:13;100.15;;;47.88;;
66179;SDS011;52986;44.028;20.466;2022-12-29T07:34:39;101.30;;;52.83;;
66179;SDS011;52986;44.028;20.466;2022-12-29T07:37:04;102.00;;;50.90;;
66179;SDS011;52986;44.028;20.466;2022-12-29T07:39:30;109.20;;;53.33;;
66179;SDS011;52986;44.028;20.466;2022-12-29T07:41:55;118.80;;;63.30;;
66179;SDS011;52986;44.028;20.466;2022-12-29T07:44:21;114.43;;;59.13;;
66179;SDS011;52986;44.028;20.466;2022-12-29T07:46:46;100.90;;;56.03;;
66179;SDS011;52986;44.028;20.466;2022-12-29T07:49:12;106.97;;;55.33;;
66179;SDS011;52986;44.028;20.466;2022-12-29T07:51:37;103.38;;;55.17;;
66179;SDS011;52986;44.028;20.466;2022-12-29T07:54:02;104.95;;;58.67;;
66179;SDS011;52986;44.028;20.466;2022-12-29T07:56:28;105.75;;;60.28;;
66179;SDS011;52986;44.028;20.466;2022-12-29T07:58:53;109.75;;;60.05;;
66179;SDS011;52986;44.028;20.466;2022-12-29T08:01:19;123.78;;;67.38;;
66179;SDS011;52986;44.028;20.466;2022-12-29T08:03:44;161.02;;;86.05;;
66179;SDS011;52986;44.028;20.466;2022-12-29T08:06:10;154.85;;;84.47;;
66179;SDS011;52986;44.028;20.466;2022-12-29T08:08:36;165.98;;;86.97;;
66179;SDS011;52986;44.028;20.466;2022-12-29T08:11:01;178.60;;;94.68;;
66179;SDS011;52986;44.028;20.466;2022-12-29T08:13:27;140.57;;;79.00;;
66179;SDS011;52986;44.028;20.466;2022-12-29T08:15:52;140.55;;;76.93;;
66179;SDS011;52986;44.028;20.466;2022-12-29T08:18:17;137.13;;;77.82;;
66179;SDS011;52986;44.028;20.466;2022-12-29T08:20:43;128.27;;;72.18;;
66179;SDS011;52986;44.028;20.466;2022-12-29T08:23:08;132.10;;;73.43;;
66179;SDS011;52986;44.028;20.466;2022-12-29T08:25:34;123.25;;;74.82;;
66179;SDS011;52986;44.028;20.466;2022-12-29T08:27:59;124.28;;;73.63;;
66179;SDS011;52986;44.028;20.466;2022-12-29T08:30:24;129.43;;;79.93;;
66179;SDS011;52986;44.028;20.466;2022-12-29T08:32:50;120.47;;;72.28;;
66179;SDS011;52986;44.028;20.466;2022-12-29T08:35:15;122.35;;;73.55;;
66179;SDS011;52986;44.028;20.466;2022-12-29T08:37:41;129.82;;;77.25;;
66179;SDS011;52986;44.028;20.466;2022-12-29T08:40:06;143.48;;;82.82;;
66179;SDS011;52986;44.028;20.466;2022-12-29T08:42:32;159.52;;;87.13;;
66179;SDS011;52986;44.028;20.466;2022-12-29T08:44:58;166.30;;;91.63;;
66179;SDS011;52986;44.028;20.466;2022-12-29T08:47:24;166.70;;;96.78;;
66179;SDS011;52986;44.028;20.466;2022-12-29T08:49:50;153.20;;;91.93;;
66179;SDS011;52986;44.028;20.466;2022-12-29T08:52:17;130.90;;;80.45;;
66179;SDS011;52986;44.028;20.466;2022-12-29T08:54:43;113.95;;;70.57;;
66179;SDS011;52986;44.028;20.466;2022-12-29T08:57:08;109.53;;;71.05;;
66179;SDS011;52986;44.028;20.466;2022-12-29T08:59:33;116.22;;;72.97;;
66179;SDS011;52986;44.028;20.466;2022-12-29T09:01:59;118.85;;;72.15;;
66179;SDS011;52986;44.028;20.466;2022-12-29T09:04:25;113.03;;;72.43;;
66179;SDS011;52986;44.028;20.466;2022-12-29T09:06:52;117.60;;;69.68;;
66179;SDS011;52986;44.028;20.466;2022-12-29T09:09:17;96.93;;;63.38;;
66179;SDS011;52986;44.028;20.466;2022-12-29T09:11:43;84.88;;;55.67;;
66179;SDS011;52986;44.028;20.466;2022-12-29T09:14:09;76.22;;;49.60;;
66179;SDS011;52986;44.028;20.466;2022-12-29T09:16:34;75.18;;;48.95;;
66179;SDS011;52986;44.028;20.466;2022-12-29T09:19:00;69.40;;;46.42;;
66179;SDS011;52986;44.028;20.466;2022-12-29T09:21:26;62.05;;;43.50;;
66179;SDS011;52986;44.028;20.466;2022-12-29T09:23:52;62.40;;;39.47;;
66179;SDS011;52986;44.028;20.466;2022-12-29T09:26:17;60.25;;;40.00;;
66179;SDS011;52986;44.028;20.466;2022-12-29T09:28:43;60.13;;;40.15;;
66179;SDS011;52986;44.028;20.466;2022-12-29T09:31:09;49.50;;;33.50;;
66179;SDS011;52986;44.028;20.466;2022-12-29T09:33:34;55.47;;;38.35;;
66179;SDS011;52986;44.028;20.466;2022-12-29T09:36:00;69.90;;;47.20;;
66179;SDS011;52986;44.028;20.466;2022-12-29T09:38:26;78.82;;;44.95;;
66179;SDS011;52986;44.028;20.466;2022-12-29T09:40:53;63.38;;;44.88;;
66179;SDS011;52986;44.028;20.466;2022-12-29T09:51:48;46.65;;;27.70;;
66179;SDS011;52986;44.028;20.466;2022-12-29T09:56:56;41.13;;;28.25;;
66179;SDS011;52986;44.028;20.466;2022-12-29T09:59:24;47.47;;;28.98;;
66179;SDS011;52986;44.028;20.466;2022-12-29T10:04:58;42.30;;;29.23;;
66179;SDS011;52986;44.028;20.466;2022-12-29T10:15:14;67.13;;;42.67;;
66179;SDS011;52986;44.028;20.466;2022-12-29T10:20:53;46.40;;;31.90;;
66179;SDS011;52986;44.028;20.466;2022-12-29T10:25:50;27.00;;;17.88;;
66179;SDS011;52986;44.028;20.466;2022-12-29T10:28:35;42.55;;;21.13;;
66179;SDS011;52986;44.028;20.466;2022-12-29T10:31:07;23.73;;;13.93;;
66179;SDS011;52986;44.028;20.466;2022-12-29T10:33:39;17.90;;;10.75;;
66179;SDS011;52986;44.028;20.466;2022-12-29T10:36:27;21.60;;;12.60;;
66179;SDS011;52986;44.028;20.466;2022-12-29T10:39:10;19.67;;;11.68;;
66179;SDS011;52986;44.028;20.466;2022-12-29T10:44:09;16.40;;;8.73;;
66179;SDS011;52986;44.028;20.466;2022-12-29T10:46:38;17.20;;;9.30;;
66179;SDS011;52986;44.028;20.466;2022-12-29T10:49:04;17.60;;;10.43;;
66179;SDS011;52986;44.028;20.466;2022-12-29T10:51:38;18.80;;;10.30;;
66179;SDS011;52986;44.028;20.466;2022-12-29T10:54:23;28.00;;;13.52;;
66179;SDS011;52986;44.028;20.466;2022-12-29T10:59:22;18.85;;;9.55;;
66179;SDS011;52986;44.028;20.466;2022-12-29T11:04:37;18.45;;;8.82;;
66179;SDS011;52986;44.028;20.466;2022-12-29T11:07:05;17.63;;;8.65;;
66179;SDS011;52986;44.028;20.466;2022-12-29T11:09:33;16.77;;;8.07;;
66179;SDS011;52986;44.028;20.466;2022-12-29T11:12:16;19.15;;;8.98;;
66179;SDS011;52986;44.028;20.466;2022-12-29T11:17:49;22.08;;;9.95;;
66179;SDS011;52986;44.028;20.466;2022-12-29T11:20:30;21.33;;;9.77;;
66179;SDS011;52986;44.028;20.466;2022-12-29T11:23:01;35.47;;;12.50;;
66179;SDS011;52986;44.028;20.466;2022-12-29T11:25:28;26.85;;;11.32;;
66179;SDS011;52986;44.028;20.466;2022-12-29T11:27:59;21.13;;;9.18;;
66179;SDS011;52986;44.028;20.466;2022-12-29T11:30:28;19.90;;;9.23;;
66179;SDS011;52986;44.028;20.466;2022-12-29T11:32:56;21.60;;;10.15;;
66179;SDS011;52986;44.028;20.466;2022-12-29T11:35:56;19.70;;;10.73;;
66179;SDS011;52986;44.028;20.466;2022-12-29T11:38:25;22.95;;;11.00;;
66179;SDS011;52986;44.028;20.466;2022-12-29T11:40:52;24.60;;;11.38;;
66179;SDS011;52986;44.028;20.466;2022-12-29T11:43:34;18.67;;;10.98;;
66179;SDS011;52986;44.028;20.466;2022-12-29T11:46:03;16.35;;;9.68;;
66179;SDS011;52986;44.028;20.466;2022-12-29T11:48:49;14.45;;;8.57;;
66179;SDS011;52986;44.028;20.466;2022-12-29T11:53:50;15.38;;;8.85;;
66179;SDS011;52986;44.028;20.466;2022-12-29T11:56:31;17.85;;;9.85;;
66179;SDS011;52986;44.028;20.466;2022-12-29T11:59:20;24.60;;;11.30;;
66179;SDS011;52986;44.028;20.466;2022-12-29T12:01:57;26.85;;;11.02;;
66179;SDS011;52986;44.028;20.466;2022-12-29T12:04:30;26.20;;;11.88;;
66179;SDS011;52986;44.028;20.466;2022-12-29T12:07:05;25.55;;;14.45;;
66179;SDS011;52986;44.028;20.466;2022-12-29T12:09:42;27.98;;;15.13;;
66179;SDS011;52986;44.028;20.466;2022-12-29T12:12:21;27.92;;;13.32;;
66179;SDS011;52986;44.028;20.466;2022-12-29T12:14:53;21.65;;;12.90;;
66179;SDS011;52986;44.028;20.466;2022-12-29T12:25:43;23.75;;;13.75;;
66179;SDS011;52986;44.028;20.466;2022-12-29T12:30:50;27.88;;;14.48;;
66179;SDS011;52986;44.028;20.466;2022-12-29T12:33:27;25.05;;;14.55;;
66179;SDS011;52986;44.028;20.466;2022-12-29T12:41:38;20.83;;;12.20;;
66179;SDS011;52986;44.028;20.466;2022-12-29T12:58:03;24.83;;;16.02;;
66179;SDS011;52986;44.028;20.466;2022-12-29T13:00:50;21.88;;;13.70;;
66179;SDS011;52986;44.028;20.466;2022-12-29T13:03:38;22.42;;;13.52;;
66179;SDS011;52986;44.028;20.466;2022-12-29T13:06:20;37.13;;;19.88;;
66179;SDS011;52986;44.028;20.466;2022-12-29T13:09:06;39.40;;;21.33;;
66179;SDS011;52986;44.028;20.466;2022-12-29T13:14:43;29.67;;;18.25;;
66179;SDS011;52986;44.028;20.466;2022-12-29T13:17:28;31.40;;;17.55;;
66179;SDS011;52986;44.028;20.466;2022-12-29T13:22:46;29.15;;;17.08;;
66179;SDS011;52986;44.028;20.466;2022-12-29T13:30:23;27.08;;;14.60;;
66179;SDS011;52986;44.028;20.466;2022-12-29T13:39:01;31.42;;;15.52;;
66179;SDS011;52986;44.028;20.466;2022-12-29T13:41:33;26.55;;;14.88;;
66179;SDS011;52986;44.028;20.466;2022-12-29T13:44:04;29.38;;;13.82;;
66179;SDS011;52986;44.028;20.466;2022-12-29T13:46:38;32.45;;;13.95;;
66179;SDS011;52986;44.028;20.466;2022-12-29T13:49:17;28.52;;;13.13;;
66179;SDS011;52986;44.028;20.466;2022-12-29T13:51:51;26.67;;;12.95;;
66179;SDS011;52986;44.028;20.466;2022-12-29T14:00:02;31.23;;;14.52;;
66179;SDS011;52986;44.028;20.466;2022-12-29T14:07:47;35.08;;;16.52;;
66179;SDS011;52986;44.028;20.466;2022-12-29T14:12:59;35.85;;;17.17;;
66179;SDS011;52986;44.028;20.466;2022-12-29T14:15:28;42.33;;;21.73;;
66179;SDS011;52986;44.028;20.466;2022-12-29T14:18:04;53.08;;;24.15;;
66179;SDS011;52986;44.028;20.466;2022-12-29T14:23:29;36.47;;;19.63;;
66179;SDS011;52986;44.028;20.466;2022-12-29T14:28:37;38.03;;;19.77;;
66179;SDS011;52986;44.028;20.466;2022-12-29T14:36:35;51.70;;;25.63;;
66179;SDS011;52986;44.028;20.466;2022-12-29T14:39:02;47.33;;;24.58;;
66179;SDS011;52986;44.028;20.466;2022-12-29T14:43:58;46.50;;;23.75;;
66179;SDS011;52986;44.028;20.466;2022-12-29T14:46:40;45.95;;;24.55;;
66179;SDS011;52986;44.028;20.466;2022-12-29T14:49:30;37.90;;;19.15;;
66179;SDS011;52986;44.028;20.466;2022-12-29T14:52:05;36.25;;;17.75;;
66179;SDS011;52986;44.028;20.466;2022-12-29T14:57:04;40.77;;;19.33;;
66179;SDS011;52986;44.028;20.466;2022-12-29T14:59:34;36.47;;;18.73;;
66179;SDS011;52986;44.028;20.466;2022-12-29T15:02:05;37.60;;;18.38;;
66179;SDS011;52986;44.028;20.466;2022-12-29T15:04:59;38.20;;;19.35;;
66179;SDS011;52986;44.028;20.466;2022-12-29T15:07:26;47.70;;;21.90;;
66179;SDS011;52986;44.028;20.466;2022-12-29T15:09:56;57.13;;;26.73;;
66179;SDS011;52986;44.028;20.466;2022-12-29T15:12:38;55.20;;;25.42;;
66179;SDS011;52986;44.028;20.466;2022-12-29T15:15:24;44.55;;;22.05;;
66179;SDS011;52986;44.028;20.466;2022-12-29T15:17:51;46.58;;;21.60;;
66179;SDS011;52986;44.028;20.466;2022-12-29T15:20:22;56.72;;;24.67;;
66179;SDS011;52986;44.028;20.466;2022-12-29T15:22:48;54.92;;;24.20;;
66179;SDS011;52986;44.028;20.466;2022-12-29T15:25:19;53.45;;;24.83;;
66179;SDS011;52986;44.028;20.466;2022-12-29T15:27:48;53.80;;;23.75;;
66179;SDS011;52986;44.028;20.466;2022-12-29T15:30:16;50.72;;;24.25;;
66179;SDS011;52986;44.028;20.466;2022-12-29T15:32:42;55.75;;;26.30;;
66179;SDS011;52986;44.028;20.466;2022-12-29T15:37:53;54.50;;;26.20;;
66179;SDS011;52986;44.028;20.466;2022-12-29T15:40:28;63.50;;;28.23;;
66179;SDS011;52986;44.028;20.466;2022-12-29T15:43:14;69.20;;;33.05;;
66179;SDS011;52986;44.028;20.466;2022-12-29T15:45:53;69.60;;;35.80;;
66179;SDS011;52986;44.028;20.466;2022-12-29T15:48:20;76.20;;;34.95;;
66179;SDS011;52986;44.028;20.466;2022-12-29T15:50:48;81.35;;;36.95;;
66179;SDS011;52986;44.028;20.466;2022-12-29T15:53:24;86.00;;;38.50;;
66179;SDS011;52986;44.028;20.466;2022-12-29T15:55:59;97.25;;;42.25;;
66179;SDS011;52986;44.028;20.466;2022-12-29T15:58:28;85.13;;;38.58;;
66179;SDS011;52986;44.028;20.466;2022-12-29T16:00:56;104.00;;;43.70;;
66179;SDS011;52986;44.028;20.466;2022-12-29T16:03:27;94.97;;;38.83;;
66179;SDS011;52986;44.028;20.466;2022-12-29T16:06:25;87.05;;;38.85;;
66179;SDS011;52986;44.028;20.466;2022-12-29T16:08:58;84.63;;;34.17;;
66179;SDS011;52986;44.028;20.466;2022-12-29T16:11:29;85.45;;;34.30;;
66179;SDS011;52986;44.028;20.466;2022-12-29T16:13:58;81.68;;;33.80;;
66179;SDS011;52986;44.028;20.466;2022-12-29T16:16:35;94.88;;;35.35;;
66179;SDS011;52986;44.028;20.466;2022-12-29T16:21:49;67.70;;;30.13;;
66179;SDS011;52986;44.028;20.466;2022-12-29T16:24:16;69.30;;;29.50;;
66179;SDS011;52986;44.028;20.466;2022-12-29T16:29:20;75.72;;;32.45;;
66179;SDS011;52986;44.028;20.466;2022-12-29T16:31:53;73.20;;;33.45;;
66179;SDS011;52986;44.028;20.466;2022-12-29T16:37:00;76.38;;;32.50;;
66179;SDS011;52986;44.028;20.466;2022-12-29T16:39:37;82.43;;;34.83;;
66179;SDS011;52986;44.028;20.466;2022-12-29T16:45:01;75.13;;;31.38;;
66179;SDS011;52986;44.028;20.466;2022-12-29T16:50:35;82.95;;;35.60;;
66179;SDS011;52986;44.028;20.466;2022-12-29T16:53:02;92.78;;;38.63;;
66179;SDS011;52986;44.028;20.466;2022-12-29T16:55:30;87.63;;;38.13;;
66179;SDS011;52986;44.028;20.466;2022-12-29T16:57:56;101.88;;;38.30;;
66179;SDS011;52986;44.028;20.466;2022-12-29T17:00:24;90.10;;;37.13;;
66179;SDS011;52986;44.028;20.466;2022-12-29T17:02:52;113.75;;;46.35;;
66179;SDS011;52986;44.028;20.466;2022-12-29T17:05:20;79.38;;;33.83;;
66179;SDS011;52986;44.028;20.466;2022-12-29T17:07:46;83.40;;;34.20;;
66179;SDS011;52986;44.028;20.466;2022-12-29T17:10:11;97.05;;;37.08;;
66179;SDS011;52986;44.028;20.466;2022-12-29T17:12:41;109.18;;;44.10;;
66179;SDS011;52986;44.028;20.466;2022-12-29T17:15:24;104.07;;;39.92;;
66179;SDS011;52986;44.028;20.466;2022-12-29T17:17:55;103.53;;;46.25;;
66179;SDS011;52986;44.028;20.466;2022-12-29T17:20:22;143.90;;;63.55;;